IBE7221 LEBL-LEMD
Flight info
| Callsign | IBE7221 |
|---|---|
| Flight time | N/A |
| Altitude | 29000 |
| Route | SENIA Z596 NEXAS N975 ADUXO |
| Aircraft | A320/M-SDE3FGHIRWY/LB1 |
Departure
| Time | N/A |
|---|---|
| Airport | Josep Tarradellas Barcelona-El Prat Airport (LEBL) |
Arrival
| Time | 2026-05-07 13:53 |
|---|---|
| Airport | Adolfo Suárez Madrid–Barajas Airport (LEMD) |
| Time | Latitude | Longitude | Altitude | Speed | Heading |
|---|---|---|---|---|---|
| 2026-05-07 13:52 | 40.50264 | -3.57580 | 1988 ft | 12 kts | 217° |
| 2026-05-07 13:53 | 40.50190 | -3.57628 | 1988 ft | 12 kts | 205° |
| 2026-05-07 13:53 | 40.50118 | -3.57667 | 1987 ft | 11 kts | 197° |
| 2026-05-07 13:53 | 40.50050 | -3.57680 | 1986 ft | 9 kts | 180° |
| 2026-05-07 13:53 | 40.49987 | -3.57680 | 1986 ft | 9 kts | 180° |
| 2026-05-07 13:54 | 40.49947 | -3.57680 | 1986 ft | 8 kts | 180° |
| 2026-05-07 13:54 | 40.49897 | -3.57681 | 1986 ft | 6 kts | 180° |
| 2026-05-07 13:54 | 40.49862 | -3.57681 | 1986 ft | 4 kts | 180° |
| 2026-05-07 13:54 | 40.49850 | -3.57681 | 1988 ft | 3 kts | 180° |
| 2026-05-07 13:55 | 40.49848 | -3.57681 | 1988 ft | 3 kts | 180° |
| 2026-05-07 13:56 | 40.49832 | -3.57681 | 1987 ft | 2 kts | 182° |
| 2026-05-07 13:56 | 40.49781 | -3.57684 | 1987 ft | 17 kts | 182° |
| 2026-05-07 13:56 | 40.49654 | -3.57685 | 1987 ft | 19 kts | 179° |
| 2026-05-07 13:56 | 40.49511 | -3.57684 | 1988 ft | 21 kts | 180° |
| 2026-05-07 13:57 | 40.49357 | -3.57683 | 1988 ft | 21 kts | 179° |
| 2026-05-07 13:57 | 40.49250 | -3.57736 | 1991 ft | 15 kts | 247° |
| 2026-05-07 13:57 | 40.49244 | -3.57845 | 1995 ft | 9 kts | 269° |
| 2026-05-07 13:57 | 40.49243 | -3.57910 | 1998 ft | 6 kts | 269° |
| 2026-05-07 13:58 | 40.49243 | -3.57992 | 2001 ft | 9 kts | 270° |
| 2026-05-07 13:58 | 40.49243 | -3.58061 | 2003 ft | 6 kts | 270° |
| 2026-05-07 13:58 | 40.49243 | -3.58110 | 2005 ft | 4 kts | 269° |
| 2026-05-07 13:58 | 40.49243 | -3.58140 | 2006 ft | 2 kts | 270° |
| 2026-05-07 13:59 | 40.49243 | -3.58154 | 2007 ft | 1 kts | 270° |
| 2026-05-07 13:59 | 40.49243 | -3.58159 | 2007 ft | 3 kts | 270° |
| 2026-05-07 13:59 | 40.49242 | -3.58264 | 2009 ft | 13 kts | 269° |
| 2026-05-07 13:59 | 40.49242 | -3.58358 | 2010 ft | 8 kts | 270° |
| 2026-05-07 14:00 | 40.49242 | -3.58446 | 2013 ft | 12 kts | 270° |
| 2026-05-07 14:00 | 40.49241 | -3.58533 | 2019 ft | 8 kts | 268° |
| 2026-05-07 14:00 | 40.49240 | -3.58589 | 2031 ft | 9 kts | 269° |
| 2026-05-07 14:00 | 40.49239 | -3.58691 | 2025 ft | 11 kts | 269° |
| 2026-05-07 14:01 | 40.49234 | -3.58784 | 2026 ft | 10 kts | 258° |
| 2026-05-07 14:01 | 40.49229 | -3.58866 | 2022 ft | 8 kts | 270° |
| 2026-05-07 14:01 | 40.49229 | -3.58936 | 2022 ft | 7 kts | 269° |
| 2026-05-07 14:01 | 40.49229 | -3.58962 | 2022 ft | 0 kts | 270° |
| 2026-05-07 14:02 | 40.49229 | -3.58967 | 2022 ft | 0 kts | 270° |